sensor_id;sensor_type;location;lat;lon;timestamp;pressure;altitude;pressure_sealevel;temperature;humidity
22755;BME280;11544;42.020;23.094;2023-04-30T04:48:00;96949.03;;;12.14;93.03
22755;BME280;11544;42.020;23.094;2023-04-30T04:50:28;96951.00;;;11.90;92.20
22755;BME280;11544;42.020;23.094;2023-04-30T04:53:09;96954.41;;;11.92;91.00
22755;BME280;11544;42.020;23.094;2023-04-30T04:55:36;96955.81;;;11.99;89.59
22755;BME280;11544;42.020;23.094;2023-04-30T04:58:16;96965.13;;;12.23;88.91
22755;BME280;11544;42.020;23.094;2023-04-30T05:01:01;96962.09;;;12.33;88.89
22755;BME280;11544;42.020;23.094;2023-04-30T05:03:33;96960.75;;;12.62;85.75
22755;BME280;11544;42.020;23.094;2023-04-30T05:06:05;96962.31;;;12.28;88.38
22755;BME280;11544;42.020;23.094;2023-04-30T05:08:33;96953.69;;;12.07;89.34
22755;BME280;11544;42.020;23.094;2023-04-30T05:11:01;96972.50;;;12.15;93.81
22755;BME280;11544;42.020;23.094;2023-04-30T05:13:28;96975.16;;;12.14;95.60
22755;BME280;11544;42.020;23.094;2023-04-30T05:16:00;96973.97;;;12.02;98.49
22755;BME280;11544;42.020;23.094;2023-04-30T05:18:27;96972.28;;;12.01;99.97
22755;BME280;11544;42.020;23.094;2023-04-30T05:20:56;96976.09;;;12.13;100.00
22755;BME280;11544;42.020;23.094;2023-04-30T05:23:23;96983.66;;;12.19;100.00
22755;BME280;11544;42.020;23.094;2023-04-30T05:25:52;96984.56;;;12.18;100.00
22755;BME280;11544;42.020;23.094;2023-04-30T05:28:19;96977.88;;;12.50;99.94
22755;BME280;11544;42.020;23.094;2023-04-30T05:30:49;96975.53;;;12.80;96.73
22755;BME280;11544;42.020;23.094;2023-04-30T05:33:37;96973.47;;;12.69;92.79
22755;BME280;11544;42.020;23.094;2023-04-30T05:36:15;96971.75;;;12.87;94.91
22755;BME280;11544;42.020;23.094;2023-04-30T05:38:45;96973.47;;;12.69;96.41
22755;BME280;11544;42.020;23.094;2023-04-30T05:41:30;96977.88;;;12.86;94.28
22755;BME280;11544;42.020;23.094;2023-04-30T05:44:06;96977.44;;;13.49;90.72
22755;BME280;11544;42.020;23.094;2023-04-30T05:46:32;96967.47;;;13.39;89.32
22755;BME280;11544;42.020;23.094;2023-04-30T05:49:01;96980.75;;;13.36;90.80
22755;BME280;11544;42.020;23.094;2023-04-30T05:51:28;96976.88;;;13.60;88.88
22755;BME280;11544;42.020;23.094;2023-04-30T05:53:55;96979.59;;;13.92;87.08
22755;BME280;11544;42.020;23.094;2023-04-30T05:56:23;96980.53;;;14.40;87.63
22755;BME280;11544;42.020;23.094;2023-04-30T05:58:50;96980.00;;;14.17;86.79
22755;BME280;11544;42.020;23.094;2023-04-30T06:01:19;96973.44;;;14.74;88.67
22755;BME280;11544;42.020;23.094;2023-04-30T06:03:46;96972.16;;;14.49;83.64
22755;BME280;11544;42.020;23.094;2023-04-30T06:06:13;96974.47;;;14.06;82.13
22755;BME280;11544;42.020;23.094;2023-04-30T06:08:40;96970.72;;;14.91;81.17
22755;BME280;11544;42.020;23.094;2023-04-30T06:11:11;96969.53;;;15.57;80.63
22755;BME280;11544;42.020;23.094;2023-04-30T06:13:38;96970.38;;;15.58;76.61
22755;BME280;11544;42.020;23.094;2023-04-30T06:16:06;96965.28;;;15.40;76.01
22755;BME280;11544;42.020;23.094;2023-04-30T06:18:34;96978.72;;;14.58;77.71
22755;BME280;11544;42.020;23.094;2023-04-30T06:21:14;96978.16;;;14.35;80.53
22755;BME280;11544;42.020;23.094;2023-04-30T06:32:09;96966.03;;;15.12;74.34
22755;BME280;11544;42.020;23.094;2023-04-30T06:34:37;96962.72;;;15.09;74.35
22755;BME280;11544;42.020;23.094;2023-04-30T06:37:05;96956.19;;;15.91;70.67
22755;BME280;11544;42.020;23.094;2023-04-30T06:39:35;96956.91;;;15.03;69.15
22755;BME280;11544;42.020;23.094;2023-04-30T06:42:02;96951.97;;;15.43;69.10
22755;BME280;11544;42.020;23.094;2023-04-30T06:44:29;96951.00;;;16.73;65.36
22755;BME280;11544;42.020;23.094;2023-04-30T06:46:58;96942.91;;;16.77;61.80
22755;BME280;11544;42.020;23.094;2023-04-30T06:49:25;96940.84;;;17.09;62.84
22755;BME280;11544;42.020;23.094;2023-04-30T06:51:52;96940.72;;;16.56;63.81
22755;BME280;11544;42.020;23.094;2023-04-30T06:54:24;96936.19;;;17.78;60.82
22755;BME280;11544;42.020;23.094;2023-04-30T06:56:53;96936.19;;;17.78;60.95
22755;BME280;11544;42.020;23.094;2023-04-30T06:59:22;96934.53;;;17.11;59.35
22755;BME280;11544;42.020;23.094;2023-04-30T07:01:49;96934.59;;;17.75;58.01
22755;BME280;11544;42.020;23.094;2023-04-30T07:04:16;96936.81;;;17.69;57.60
22755;BME280;11544;42.020;23.094;2023-04-30T07:06:43;96933.44;;;17.67;56.82
22755;BME280;11544;42.020;23.094;2023-04-30T07:09:10;96930.34;;;18.74;56.30
22755;BME280;11544;42.020;23.094;2023-04-30T07:11:38;96919.47;;;19.38;54.84
22755;BME280;11544;42.020;23.094;2023-04-30T07:14:05;96923.44;;;19.90;55.03
22755;BME280;11544;42.020;23.094;2023-04-30T07:16:32;96925.66;;;18.90;53.01
22755;BME280;11544;42.020;23.094;2023-04-30T07:18:59;96921.22;;;19.26;52.85
22755;BME280;11544;42.020;23.094;2023-04-30T07:21:26;96936.91;;;18.18;52.15
22755;BME280;11544;42.020;23.094;2023-04-30T07:23:53;96922.91;;;19.27;52.91
22755;BME280;11544;42.020;23.094;2023-04-30T07:26:20;96923.44;;;20.01;50.09
22755;BME280;11544;42.020;23.094;2023-04-30T07:28:50;96923.31;;;19.92;49.70
22755;BME280;11544;42.020;23.094;2023-04-30T07:31:17;96929.78;;;19.76;51.81
22755;BME280;11544;42.020;23.094;2023-04-30T07:33:44;96924.19;;;20.81;50.87
22755;BME280;11544;42.020;23.094;2023-04-30T07:36:11;96924.50;;;19.87;47.34
22755;BME280;11544;42.020;23.094;2023-04-30T07:38:38;96928.84;;;19.42;49.73
22755;BME280;11544;42.020;23.094;2023-04-30T07:41:05;96927.03;;;20.12;50.59
22755;BME280;11544;42.020;23.094;2023-04-30T07:43:34;96922.69;;;20.44;47.25
22755;BME280;11544;42.020;23.094;2023-04-30T07:46:01;96921.25;;;19.84;50.00
22755;BME280;11544;42.020;23.094;2023-04-30T07:48:29;96922.72;;;20.56;47.58
22755;BME280;11544;42.020;23.094;2023-04-30T07:50:56;96927.91;;;20.01;47.07
22755;BME280;11544;42.020;23.094;2023-04-30T07:53:23;96930.53;;;20.01;49.17
22755;BME280;11544;42.020;23.094;2023-04-30T07:55:50;96922.47;;;19.91;49.02
22755;BME280;11544;42.020;23.094;2023-04-30T07:58:17;96922.22;;;20.28;49.95
22755;BME280;11544;42.020;23.094;2023-04-30T08:00:44;96922.47;;;20.14;49.42
22755;BME280;11544;42.020;23.094;2023-04-30T08:03:11;96921.50;;;20.15;47.39
22755;BME280;11544;42.020;23.094;2023-04-30T08:05:38;96920.16;;;19.86;50.37
22755;BME280;11544;42.020;23.094;2023-04-30T08:08:06;96909.97;;;19.93;48.09
22755;BME280;11544;42.020;23.094;2023-04-30T08:10:34;96916.44;;;19.31;48.34
22755;BME280;11544;42.020;23.094;2023-04-30T08:13:03;96916.34;;;19.33;48.90
22755;BME280;11544;42.020;23.094;2023-04-30T08:15:32;96911.66;;;19.36;48.55
22755;BME280;11544;42.020;23.094;2023-04-30T08:17:59;96906.34;;;20.17;48.36
22755;BME280;11544;42.020;23.094;2023-04-30T08:20:28;96904.25;;;21.30;48.56
22755;BME280;11544;42.020;23.094;2023-04-30T08:22:55;96894.38;;;21.00;45.46
22755;BME280;11544;42.020;23.094;2023-04-30T08:25:22;96895.16;;;20.58;47.37
22755;BME280;11544;42.020;23.094;2023-04-30T08:27:49;96891.81;;;21.42;47.11
22755;BME280;11544;42.020;23.094;2023-04-30T08:30:16;96887.75;;;21.05;46.13
22755;BME280;11544;42.020;23.094;2023-04-30T08:32:43;96890.16;;;21.41;45.31
22755;BME280;11544;42.020;23.094;2023-04-30T08:35:10;96894.34;;;21.11;46.37
22755;BME280;11544;42.020;23.094;2023-04-30T08:37:39;96883.00;;;20.88;44.57
22755;BME280;11544;42.020;23.094;2023-04-30T08:43:17;96877.38;;;21.76;44.00
22755;BME280;11544;42.020;23.094;2023-04-30T08:45:46;96874.31;;;21.81;44.66
22755;BME280;11544;42.020;23.094;2023-04-30T08:48:14;96875.50;;;20.72;45.53
22755;BME280;11544;42.020;23.094;2023-04-30T08:50:42;96877.47;;;20.91;45.01
22755;BME280;11544;42.020;23.094;2023-04-30T08:53:10;96872.03;;;20.92;44.58
22755;BME280;11544;42.020;23.094;2023-04-30T08:55:39;96872.03;;;20.49;45.03
22755;BME280;11544;42.020;23.094;2023-04-30T08:58:07;96872.41;;;20.44;46.24
22755;BME280;11544;42.020;23.094;2023-04-30T09:00:37;96868.66;;;20.47;47.00
22755;BME280;11544;42.020;23.094;2023-04-30T09:03:07;96872.78;;;20.83;46.52
22755;BME280;11544;42.020;23.094;2023-04-30T09:05:36;96871.16;;;20.60;44.46
22755;BME280;11544;42.020;23.094;2023-04-30T09:08:05;96880.81;;;20.38;45.61
22755;BME280;11544;42.020;23.094;2023-04-30T09:10:32;96882.88;;;20.35;44.03
22755;BME280;11544;42.020;23.094;2023-04-30T09:13:02;96876.59;;;20.47;44.22
22755;BME280;11544;42.020;23.094;2023-04-30T09:15:31;96872.13;;;20.47;44.12
22755;BME280;11544;42.020;23.094;2023-04-30T09:18:25;96869.53;;;20.91;44.85
22755;BME280;11544;42.020;23.094;2023-04-30T09:20:54;96871.34;;;20.24;46.08
22755;BME280;11544;42.020;23.094;2023-04-30T09:23:22;96867.25;;;20.32;45.77
22755;BME280;11544;42.020;23.094;2023-04-30T09:25:50;96862.38;;;20.48;45.70
22755;BME280;11544;42.020;23.094;2023-04-30T09:28:17;96859.06;;;20.35;45.72
22755;BME280;11544;42.020;23.094;2023-04-30T09:30:44;96869.22;;;19.84;45.47
22755;BME280;11544;42.020;23.094;2023-04-30T09:33:12;96858.00;;;20.26;45.33
22755;BME280;11544;42.020;23.094;2023-04-30T09:35:39;96854.22;;;20.62;45.31
22755;BME280;11544;42.020;23.094;2023-04-30T09:38:29;96863.72;;;20.42;44.07
22755;BME280;11544;42.020;23.094;2023-04-30T09:40:58;96852.53;;;20.61;43.78
22755;BME280;11544;42.020;23.094;2023-04-30T09:43:27;96844.53;;;21.05;42.63
22755;BME280;11544;42.020;23.094;2023-04-30T09:45:58;96841.72;;;22.00;41.37
22755;BME280;11544;42.020;23.094;2023-04-30T09:48:26;96847.16;;;21.98;42.15
22755;BME280;11544;42.020;23.094;2023-04-30T09:50:57;96846.59;;;21.95;41.69
22755;BME280;11544;42.020;23.094;2023-04-30T09:53:23;96844.91;;;21.94;41.50
22755;BME280;11544;42.020;23.094;2023-04-30T09:55:50;96841.88;;;22.08;41.51
22755;BME280;11544;42.020;23.094;2023-04-30T09:58:18;96829.22;;;21.81;40.71
22755;BME280;11544;42.020;23.094;2023-04-30T10:00:45;96832.06;;;21.99;43.16
22755;BME280;11544;42.020;23.094;2023-04-30T10:03:15;96841.09;;;21.87;43.14
22755;BME280;11544;42.020;23.094;2023-04-30T10:05:47;96840.06;;;20.73;42.42
22755;BME280;11544;42.020;23.094;2023-04-30T10:08:27;96829.97;;;20.99;43.85
22755;BME280;11544;42.020;23.094;2023-04-30T10:11:04;96832.75;;;21.91;41.86
22755;BME280;11544;42.020;23.094;2023-04-30T10:13:37;96833.06;;;22.08;41.68
22755;BME280;11544;42.020;23.094;2023-04-30T10:16:22;96823.56;;;22.55;39.66
22755;BME280;11544;42.020;23.094;2023-04-30T10:18:51;96823.91;;;21.81;40.41
22755;BME280;11544;42.020;23.094;2023-04-30T10:21:21;96812.78;;;22.37;39.87
22755;BME280;11544;42.020;23.094;2023-04-30T10:23:48;96823.56;;;21.23;41.49
22755;BME280;11544;42.020;23.094;2023-04-30T10:26:17;96821.06;;;21.42;41.03
22755;BME280;11544;42.020;23.094;2023-04-30T10:28:47;96827.13;;;20.47;40.78
22755;BME280;11544;42.020;23.094;2023-04-30T10:31:16;96826.25;;;21.74;40.71
22755;BME280;11544;42.020;23.094;2023-04-30T10:34:05;96814.75;;;22.35;38.55
22755;BME280;11544;42.020;23.094;2023-04-30T10:36:39;96825.69;;;22.11;38.97
22755;BME280;11544;42.020;23.094;2023-04-30T10:39:11;96804.13;;;22.45;38.10
22755;BME280;11544;42.020;23.094;2023-04-30T10:41:39;96806.38;;;22.50;40.02
22755;BME280;11544;42.020;23.094;2023-04-30T10:44:06;96811.25;;;22.35;36.96
22755;BME280;11544;42.020;23.094;2023-04-30T10:46:34;96807.94;;;22.02;38.14
22755;BME280;11544;42.020;23.094;2023-04-30T10:49:02;96814.25;;;21.49;38.58
22755;BME280;11544;42.020;23.094;2023-04-30T10:51:49;96808.66;;;22.14;39.40
22755;BME280;11544;42.020;23.094;2023-04-30T10:54:28;96809.06;;;22.09;38.12
22755;BME280;11544;42.020;23.094;2023-04-30T10:57:15;96808.31;;;22.48;38.29
22755;BME280;11544;42.020;23.094;2023-04-30T11:02:45;96806.91;;;22.34;38.36
22755;BME280;11544;42.020;23.094;2023-04-30T11:05:18;96811.34;;;21.83;38.86
22755;BME280;11544;42.020;23.094;2023-04-30T11:07:56;96825.06;;;21.15;42.10
22755;BME280;11544;42.020;23.094;2023-04-30T11:10:25;96822.81;;;20.58;44.11
22755;BME280;11544;42.020;23.094;2023-04-30T11:12:53;96824.13;;;20.41;45.44
22755;BME280;11544;42.020;23.094;2023-04-30T11:15:41;96828.31;;;19.88;46.09
22755;BME280;11544;42.020;23.094;2023-04-30T11:18:08;96829.97;;;19.56;46.52
22755;BME280;11544;42.020;23.094;2023-04-30T11:20:39;96839.41;;;19.71;46.59
22755;BME280;11544;42.020;23.094;2023-04-30T11:23:13;96838.78;;;19.79;46.04
22755;BME280;11544;42.020;23.094;2023-04-30T11:25:47;96839.56;;;19.34;47.01
22755;BME280;11544;42.020;23.094;2023-04-30T11:28:23;96834.91;;;19.38;47.93
22755;BME280;11544;42.020;23.094;2023-04-30T11:30:52;96836.34;;;19.64;47.61
22755;BME280;11544;42.020;23.094;2023-04-30T11:33:22;96842.88;;;19.94;48.08
22755;BME280;11544;42.020;23.094;2023-04-30T11:35:53;96832.19;;;19.84;47.94
22755;BME280;11544;42.020;23.094;2023-04-30T11:38:26;96827.88;;;20.38;46.22
22755;BME280;11544;42.020;23.094;2023-04-30T11:40:54;96824.06;;;20.31;45.10
22755;BME280;11544;42.020;23.094;2023-04-30T11:43:26;96822.75;;;20.25;44.71
22755;BME280;11544;42.020;23.094;2023-04-30T11:46:09;96824.50;;;20.59;44.97
22755;BME280;11544;42.020;23.094;2023-04-30T11:48:41;96821.66;;;20.71;43.98
22755;BME280;11544;42.020;23.094;2023-04-30T11:51:22;96820.38;;;20.55;44.91
22755;BME280;11544;42.020;23.094;2023-04-30T11:53:51;96811.06;;;20.39;44.52
22755;BME280;11544;42.020;23.094;2023-04-30T11:56:20;96808.81;;;20.88;44.41
22755;BME280;11544;42.020;23.094;2023-04-30T11:58:48;96810.53;;;21.10;44.13
22755;BME280;11544;42.020;23.094;2023-04-30T12:01:16;96805.63;;;21.47;45.69
22755;BME280;11544;42.020;23.094;2023-04-30T12:03:45;96804.75;;;21.77;43.66
22755;BME280;11544;42.020;23.094;2023-04-30T12:06:23;96798.00;;;21.64;44.81
22755;BME280;11544;42.020;23.094;2023-04-30T12:08:52;96788.19;;;22.35;42.69
22755;BME280;11544;42.020;23.094;2023-04-30T12:11:22;96785.97;;;22.89;42.02
22755;BME280;11544;42.020;23.094;2023-04-30T12:13:52;96792.13;;;22.70;41.06
22755;BME280;11544;42.020;23.094;2023-04-30T12:16:20;96789.88;;;22.95;41.50
22755;BME280;11544;42.020;23.094;2023-04-30T12:18:47;96789.88;;;22.46;42.08
22755;BME280;11544;42.020;23.094;2023-04-30T12:21:19;96785.03;;;22.11;41.59
22755;BME280;11544;42.020;23.094;2023-04-30T12:23:46;96771.22;;;22.17;37.93
22755;BME280;11544;42.020;23.094;2023-04-30T12:26:16;96770.56;;;22.25;36.17
22755;BME280;11544;42.020;23.094;2023-04-30T12:28:46;96767.97;;;22.13;37.04
22755;BME280;11544;42.020;23.094;2023-04-30T12:31:16;96778.47;;;22.05;37.79
22755;BME280;11544;42.020;23.094;2023-04-30T12:33:43;96773.25;;;21.94;38.36
22755;BME280;11544;42.020;23.094;2023-04-30T12:36:10;96764.00;;;22.87;37.71
22755;BME280;11544;42.020;23.094;2023-04-30T12:38:44;96784.44;;;21.97;37.77
22755;BME280;11544;42.020;23.094;2023-04-30T12:41:11;96776.13;;;21.41;38.80
22755;BME280;11544;42.020;23.094;2023-04-30T12:43:47;96767.84;;;21.34;38.22
22755;BME280;11544;42.020;23.094;2023-04-30T12:46:25;96765.47;;;22.02;38.42
22755;BME280;11544;42.020;23.094;2023-04-30T12:48:53;96770.41;;;21.66;38.62
22755;BME280;11544;42.020;23.094;2023-04-30T12:51:20;96765.19;;;22.05;37.63
22755;BME280;11544;42.020;23.094;2023-04-30T12:53:50;96757.31;;;21.84;37.64
22755;BME280;11544;42.020;23.094;2023-04-30T12:56:17;96747.66;;;22.24;37.90
22755;BME280;11544;42.020;23.094;2023-04-30T12:58:46;96736.59;;;22.18;37.95
22755;BME280;11544;42.020;23.094;2023-04-30T13:01:19;96736.00;;;22.05;38.53
22755;BME280;11544;42.020;23.094;2023-04-30T13:03:47;96731.25;;;22.09;38.76
22755;BME280;11544;42.020;23.094;2023-04-30T13:06:15;96718.13;;;22.17;39.22
22755;BME280;11544;42.020;23.094;2023-04-30T13:08:45;96719.78;;;21.98;38.62
22755;BME280;11544;42.020;23.094;2023-04-30T13:11:37;96716.09;;;21.80;38.94
22755;BME280;11544;42.020;23.094;2023-04-30T13:14:04;96710.19;;;22.46;38.90
22755;BME280;11544;42.020;23.094;2023-04-30T13:16:35;96710.13;;;21.88;38.70
22755;BME280;11544;42.020;23.094;2023-04-30T13:19:05;96703.31;;;22.14;38.89
22755;BME280;11544;42.020;23.094;2023-04-30T13:21:32;96707.63;;;22.06;39.33
22755;BME280;11544;42.020;23.094;2023-04-30T13:23:59;96703.56;;;21.92;39.35
22755;BME280;11544;42.020;23.094;2023-04-30T13:26:29;96708.19;;;21.90;38.62
22755;BME280;11544;42.020;23.094;2023-04-30T13:28:56;96691.38;;;21.60;39.72
22755;BME280;11544;42.020;23.094;2023-04-30T13:31:23;96702.28;;;21.67;39.21
22755;BME280;11544;42.020;23.094;2023-04-30T13:33:52;96708.06;;;21.51;40.06
22755;BME280;11544;42.020;23.094;2023-04-30T13:36:22;96706.09;;;21.43;41.73
22755;BME280;11544;42.020;23.094;2023-04-30T13:38:49;96713.63;;;20.65;42.38
22755;BME280;11544;42.020;23.094;2023-04-30T13:41:24;96707.50;;;21.17;41.40
22755;BME280;11544;42.020;23.094;2023-04-30T13:43:51;96699.53;;;21.97;40.85
22755;BME280;11544;42.020;23.094;2023-04-30T13:46:18;96707.44;;;21.38;40.57
22755;BME280;11544;42.020;23.094;2023-04-30T13:48:47;96705.44;;;21.30;41.50
22755;BME280;11544;42.020;23.094;2023-04-30T13:51:28;96702.13;;;21.68;40.84
22755;BME280;11544;42.020;23.094;2023-04-30T13:53:55;96699.38;;;21.99;39.00
22755;BME280;11544;42.020;23.094;2023-04-30T13:56:22;96697.94;;;21.75;38.24
22755;BME280;11544;42.020;23.094;2023-04-30T13:58:50;96695.25;;;21.56;39.02
22755;BME280;11544;42.020;23.094;2023-04-30T14:01:17;96688.13;;;21.26;40.36
22755;BME280;11544;42.020;23.094;2023-04-30T14:03:43;96690.19;;;21.12;41.02
22755;BME280;11544;42.020;23.094;2023-04-30T14:06:12;96691.00;;;21.13;41.69
22755;BME280;11544;42.020;23.094;2023-04-30T14:08:41;96688.81;;;21.18;41.18
22755;BME280;11544;42.020;23.094;2023-04-30T14:11:15;96687.78;;;21.40;40.12
22755;BME280;11544;42.020;23.094;2023-04-30T14:13:43;96693.53;;;21.14;40.29
22755;BME280;11544;42.020;23.094;2023-04-30T14:16:15;96682.47;;;21.71;40.08
22755;BME280;11544;42.020;23.094;2023-04-30T14:18:43;96693.63;;;21.03;40.05
22755;BME280;11544;42.020;23.094;2023-04-30T14:21:25;96684.09;;;21.52;39.87
22755;BME280;11544;42.020;23.094;2023-04-30T14:24:10;96690.19;;;21.43;39.44
22755;BME280;11544;42.020;23.094;2023-04-30T14:26:38;96679.44;;;21.14;39.17
22755;BME280;11544;42.020;23.094;2023-04-30T14:29:08;96679.91;;;21.19;40.63
22755;BME280;11544;42.020;23.094;2023-04-30T14:31:39;96679.31;;;21.46;40.08
22755;BME280;11544;42.020;23.094;2023-04-30T14:34:09;96675.06;;;21.74;39.77
22755;BME280;11544;42.020;23.094;2023-04-30T14:36:36;96669.41;;;21.48;39.52
22755;BME280;11544;42.020;23.094;2023-04-30T14:39:03;96672.94;;;20.97;39.80
22755;BME280;11544;42.020;23.094;2023-04-30T14:41:35;96670.94;;;21.41;39.06
22755;BME280;11544;42.020;23.094;2023-04-30T14:44:03;96665.69;;;21.70;38.76
22755;BME280;11544;42.020;23.094;2023-04-30T14:46:31;96661.25;;;21.71;38.01
22755;BME280;11544;42.020;23.094;2023-04-30T14:48:59;96664.25;;;21.56;38.64
22755;BME280;11544;42.020;23.094;2023-04-30T14:51:27;96664.34;;;21.95;38.81
22755;BME280;11544;42.020;23.094;2023-04-30T14:53:54;96661.53;;;21.87;38.34
22755;BME280;11544;42.020;23.094;2023-04-30T14:56:22;96658.34;;;22.23;38.20
22755;BME280;11544;42.020;23.094;2023-04-30T14:58:49;96665.88;;;21.78;38.02
22755;BME280;11544;42.020;23.094;2023-04-30T15:01:16;96664.34;;;21.86;38.89
22755;BME280;11544;42.020;23.094;2023-04-30T15:03:44;96666.09;;;21.56;39.40
22755;BME280;11544;42.020;23.094;2023-04-30T15:06:12;96669.16;;;21.61;39.29
22755;BME280;11544;42.020;23.094;2023-04-30T15:08:39;96667.19;;;21.53;39.42
22755;BME280;11544;42.020;23.094;2023-04-30T15:11:06;96669.34;;;21.69;39.16
22755;BME280;11544;42.020;23.094;2023-04-30T15:13:38;96660.13;;;21.73;37.70
22755;BME280;11544;42.020;23.094;2023-04-30T15:16:05;96662.47;;;21.57;38.33
22755;BME280;11544;42.020;23.094;2023-04-30T15:18:33;96662.00;;;21.42;39.54
22755;BME280;11544;42.020;23.094;2023-04-30T15:21:03;96666.47;;;21.51;39.00
22755;BME280;11544;42.020;23.094;2023-04-30T15:23:30;96667.88;;;21.46;39.31
22755;BME280;11544;42.020;23.094;2023-04-30T15:25:57;96669.63;;;21.66;38.41
22755;BME280;11544;42.020;23.094;2023-04-30T15:28:24;96675.47;;;21.70;38.72
22755;BME280;11544;42.020;23.094;2023-04-30T15:30:51;96674.25;;;21.84;37.09
22755;BME280;11544;42.020;23.094;2023-04-30T15:33:18;96677.69;;;21.55;37.62
22755;BME280;11544;42.020;23.094;2023-04-30T15:35:45;96682.16;;;21.54;36.83
22755;BME280;11544;42.020;23.094;2023-04-30T15:38:13;96673.22;;;21.25;38.44
22755;BME280;11544;42.020;23.094;2023-04-30T15:40:40;96677.66;;;21.14;39.29
22755;BME280;11544;42.020;23.094;2023-04-30T15:43:07;96676.28;;;21.30;38.45
22755;BME280;11544;42.020;23.094;2023-04-30T15:45:34;96679.59;;;21.43;38.62
22755;BME280;11544;42.020;23.094;2023-04-30T15:48:01;96667.16;;;21.44;38.46
22755;BME280;11544;42.020;23.094;2023-04-30T15:50:28;96666.47;;;21.42;39.42
22755;BME280;11544;42.020;23.094;2023-04-30T15:52:55;96668.88;;;21.54;39.42
22755;BME280;11544;42.020;23.094;2023-04-30T15:55:23;96666.28;;;21.74;38.31
22755;BME280;11544;42.020;23.094;2023-04-30T15:57:49;96664.03;;;21.69;38.38
22755;BME280;11544;42.020;23.094;2023-04-30T16:00:17;96662.34;;;21.68;38.59
22755;BME280;11544;42.020;23.094;2023-04-30T16:02:44;96656.09;;;21.79;38.39
22755;BME280;11544;42.020;23.094;2023-04-30T16:05:10;96652.72;;;21.67;38.53
22755;BME280;11544;42.020;23.094;2023-04-30T16:07:38;96664.31;;;21.66;37.88
22755;BME280;11544;42.020;23.094;2023-04-30T16:10:08;96660.09;;;21.64;39.25
22755;BME280;11544;42.020;23.094;2023-04-30T16:12:35;96663.19;;;21.59;39.33
22755;BME280;11544;42.020;23.094;2023-04-30T16:15:03;96658.50;;;21.42;39.75
22755;BME280;11544;42.020;23.094;2023-04-30T16:17:31;96674.78;;;21.37;40.19
22755;BME280;11544;42.020;23.094;2023-04-30T16:19:59;96677.81;;;21.23;40.23
22755;BME280;11544;42.020;23.094;2023-04-30T16:22:26;96681.06;;;21.36;39.83
22755;BME280;11544;42.020;23.094;2023-04-30T16:24:53;96681.84;;;21.17;40.33
22755;BME280;11544;42.020;23.094;2023-04-30T16:27:20;96678.34;;;21.17;40.98
22755;BME280;11544;42.020;23.094;2023-04-30T16:29:47;96681.69;;;21.19;41.05
22755;BME280;11544;42.020;23.094;2023-04-30T16:32:14;96682.34;;;20.80;41.69
22755;BME280;11544;42.020;23.094;2023-04-30T16:34:41;96685.59;;;20.63;40.60
22755;BME280;11544;42.020;23.094;2023-04-30T16:37:08;96685.81;;;20.81;39.59
22755;BME280;11544;42.020;23.094;2023-04-30T16:39:35;96683.88;;;20.62;39.74
22755;BME280;11544;42.020;23.094;2023-04-30T16:42:02;96683.94;;;20.71;39.35
22755;BME280;11544;42.020;23.094;2023-04-30T16:44:29;96689.34;;;20.49;39.66
22755;BME280;11544;42.020;23.094;2023-04-30T16:46:56;96684.50;;;20.33;39.84
22755;BME280;11544;42.020;23.094;2023-04-30T16:49:25;96692.84;;;20.17;40.36
22755;BME280;11544;42.020;23.094;2023-04-30T16:51:52;96698.41;;;20.14;40.71
22755;BME280;11544;42.020;23.094;2023-04-30T16:54:19;96702.06;;;20.02;41.22
22755;BME280;11544;42.020;23.094;2023-04-30T16:56:46;96702.59;;;20.17;41.45
22755;BME280;11544;42.020;23.094;2023-04-30T16:59:12;96714.13;;;19.95;42.24
22755;BME280;11544;42.020;23.094;2023-04-30T17:01:39;96714.59;;;19.88;43.04
22755;BME280;11544;42.020;23.094;2023-04-30T17:04:07;96716.78;;;19.83;43.45
22755;BME280;11544;42.020;23.094;2023-04-30T17:06:33;96721.72;;;19.65;44.17
22755;BME280;11544;42.020;23.094;2023-04-30T17:09:01;96711.66;;;19.71;43.87
22755;BME280;11544;42.020;23.094;2023-04-30T17:11:27;96720.28;;;19.39;44.55
22755;BME280;11544;42.020;23.094;2023-04-30T17:13:54;96731.34;;;19.33;45.23
22755;BME280;11544;42.020;23.094;2023-04-30T17:16:21;96735.66;;;19.34;45.45
22755;BME280;11544;42.020;23.094;2023-04-30T17:18:48;96744.81;;;19.18;45.69
22755;BME280;11544;42.020;23.094;2023-04-30T17:21:15;96747.44;;;19.07;46.34
22755;BME280;11544;42.020;23.094;2023-04-30T17:23:42;96748.59;;;18.92;46.93
22755;BME280;11544;42.020;23.094;2023-04-30T17:26:09;96754.13;;;18.89;47.22
22755;BME280;11544;42.020;23.094;2023-04-30T17:28:36;96751.81;;;18.84;47.37
22755;BME280;11544;42.020;23.094;2023-04-30T17:31:03;96752.78;;;18.48;47.91
22755;BME280;11544;42.020;23.094;2023-04-30T17:33:33;96758.72;;;18.38;48.59
22755;BME280;11544;42.020;23.094;2023-04-30T17:36:00;96765.41;;;18.31;49.35
22755;BME280;11544;42.020;23.094;2023-04-30T17:38:28;96765.38;;;18.55;50.30
22755;BME280;11544;42.020;23.094;2023-04-30T17:40:55;96771.63;;;18.30;48.93
22755;BME280;11544;42.020;23.094;2023-04-30T17:43:23;96776.53;;;18.24;49.31
22755;BME280;11544;42.020;23.094;2023-04-30T17:45:50;96778.53;;;18.20;49.90
22755;BME280;11544;42.020;23.094;2023-04-30T17:48:21;96797.31;;;17.91;50.27
22755;BME280;11544;42.020;23.094;2023-04-30T17:50:49;96793.72;;;17.92;50.26
22755;BME280;11544;42.020;23.094;2023-04-30T17:53:23;96789.63;;;17.75;50.41
22755;BME280;11544;42.020;23.094;2023-04-30T17:56:01;96796.31;;;17.55;51.48
22755;BME280;11544;42.020;23.094;2023-04-30T17:58:35;96802.59;;;17.66;50.84
22755;BME280;11544;42.020;23.094;2023-04-30T18:01:05;96805.97;;;17.68;51.00
22755;BME280;11544;42.020;23.094;2023-04-30T18:03:37;96805.66;;;17.60;51.06